Duluth, MN

3:42 PM CDT on July 03, 2015 (GMT -0500)
Congdon - Ridgewood Rd. | | Change Station
CLOSE
Current Station
Personal Weather Station
Location: Duluth, MN
Elevation: 1010 ft
Nearby Weather Stations

Elev 1010 ft 46.83 °N, 92.06 °W | Updated 10 seconds ago

Partly Cloudy
Partly Cloudy
82.8 °F
Feels Like 85 °F
N
0.0
Wind Variable Wind from NW
Gusts 10.0 mph

Today
High -- | Low -- °F
--% Chance of Precip.
Yesterday
High -- | Low -- °F
Precip. -- in
5:19 AM 9:05 PM
Waning Gibbous, 96% visible
Pressure 29.86 in
Visibility 5.0 miles
Clouds Scattered Clouds 4000 ft
Heat Index 85 °F
Dew Point 65 °F
Humidity 55%
Rainfall 0.00 in
Snow Depth Not available.
UV 8 out of 12
Pollen 4.90 out of 12
Air Quality Not available.
Flu Activity Not available.
METAR KDLH 031955Z 29007KT 5SM FU SCT040 26/17 A2988 RMK AO2 SLP112 T02610167

More Conditions Fewer Conditions

Pressure 29.86 in
Visibility 5.0 miles
Clouds Scattered Clouds 4000 ft
Heat Index 85 °F
Dew Point 65 °F
Humidity 55%
Rainfall 0.00 in
Snow Depth Not available.
UV 8 out of 12
Pollen 4.90 out of 12
Air Quality Not available.
Flu Activity Not available.
METAR KDLH 031955Z 29007KT 5SM FU SCT040 26/17 A2988 RMK AO2 SLP112 T02610167

More Conditions Fewer Conditions

10-Day Weather Forecast

×

Almanac

Astronomy

Jul. 03, 2015 Rise Set
Actual Time
Civil Twilight
Nautical Twilight
Astronomical Twilight
Moon
Length of Visible Light
Length of Day
Tomorrow will be .
, % of the Moon is Illuminated

Today's Extremes

State Highs State Lows

Community

WunderPhotos

Upload Photos

1,834,774 photos uploaded!

WunderBlogs® & News

Nearby

Air Quality

  Air Quality AQ Index Pollutant
Not available.

Snow Depth

Station Depth Elevation

Earthquake Activity

City Distance Mag. Time & Date
Minimum magnitude displayed is 2.5.

Coastal Water Temperatures

Place Temperature

Stations

Nearby Weather Stations

Station Location Temp. Windchill Dew Point Humidity Wind Precip. Elev Updated Type